Terminal Aerodrome Forecast
Issued by NWS

Home | Current Version | Previous Version | Text Only | Print | Product List | Glossary On
Versions: 1 2 3 4 5 6 7 8 9 10 11 12 13 14 15 16 17 18
252
FTUS43 KDTX 060533
TAFMBS
TAF
KMBS 060533Z 0606/0706 14004KT 6SM BR SCT250
     FM061000 09006KT 4SM BR BKN010
     FM061500 09011KT P6SM BKN012 OVC150
     FM070200 26015G23KT P6SM OVC012=

USA.gov is the U.S. government's official web portal to all federal, state and local government web resources and services.